sensor_id;sensor_type;location;lat;lon;timestamp;P1;durP1;ratioP1;P2;durP2;ratioP2
14984;SDS011;7588;62.368;25.902;2024-03-02T00:00:51;2.25;;;0.75;;
14984;SDS011;7588;62.368;25.902;2024-03-02T00:03:17;1.33;;;0.82;;
14984;SDS011;7588;62.368;25.902;2024-03-02T00:05:43;1.83;;;1.30;;
14984;SDS011;7588;62.368;25.902;2024-03-02T00:08:11;1.77;;;1.08;;
14984;SDS011;7588;62.368;25.902;2024-03-02T00:10:38;2.70;;;0.93;;
14984;SDS011;7588;62.368;25.902;2024-03-02T00:13:10;1.60;;;1.00;;
14984;SDS011;7588;62.368;25.902;2024-03-02T00:15:41;1.67;;;0.90;;
14984;SDS011;7588;62.368;25.902;2024-03-02T00:18:19;1.67;;;0.77;;
14984;SDS011;7588;62.368;25.902;2024-03-02T00:20:46;2.15;;;1.30;;
14984;SDS011;7588;62.368;25.902;2024-03-02T00:23:14;1.42;;;0.95;;
14984;SDS011;7588;62.368;25.902;2024-03-02T00:25:44;1.80;;;1.25;;
14984;SDS011;7588;62.368;25.902;2024-03-02T00:31:10;2.15;;;1.50;;
14984;SDS011;7588;62.368;25.902;2024-03-02T00:36:05;2.60;;;1.30;;
14984;SDS011;7588;62.368;25.902;2024-03-02T00:38:32;2.30;;;1.20;;
14984;SDS011;7588;62.368;25.902;2024-03-02T00:40:58;2.72;;;1.35;;
14984;SDS011;7588;62.368;25.902;2024-03-02T00:43:43;2.25;;;1.10;;
14984;SDS011;7588;62.368;25.902;2024-03-02T00:46:11;2.00;;;1.20;;
14984;SDS011;7588;62.368;25.902;2024-03-02T00:48:38;2.28;;;1.38;;
14984;SDS011;7588;62.368;25.902;2024-03-02T00:51:04;2.45;;;1.35;;
14984;SDS011;7588;62.368;25.902;2024-03-02T00:53:30;2.67;;;1.13;;
14984;SDS011;7588;62.368;25.902;2024-03-02T00:55:57;2.03;;;0.85;;
14984;SDS011;7588;62.368;25.902;2024-03-02T00:58:24;2.88;;;1.60;;
14984;SDS011;7588;62.368;25.902;2024-03-02T01:00:49;2.58;;;1.50;;
14984;SDS011;7588;62.368;25.902;2024-03-02T01:03:15;2.83;;;1.60;;
14984;SDS011;7588;62.368;25.902;2024-03-02T01:05:43;2.92;;;1.48;;
14984;SDS011;7588;62.368;25.902;2024-03-02T01:08:09;2.90;;;1.63;;
14984;SDS011;7588;62.368;25.902;2024-03-02T01:10:35;2.75;;;1.60;;
14984;SDS011;7588;62.368;25.902;2024-03-02T01:13:01;2.95;;;1.73;;
14984;SDS011;7588;62.368;25.902;2024-03-02T01:15:26;3.03;;;1.08;;
14984;SDS011;7588;62.368;25.902;2024-03-02T01:17:52;2.80;;;1.60;;
14984;SDS011;7588;62.368;25.902;2024-03-02T01:20:17;2.97;;;1.13;;
14984;SDS011;7588;62.368;25.902;2024-03-02T01:22:43;4.20;;;2.88;;
14984;SDS011;7588;62.368;25.902;2024-03-02T01:25:08;3.65;;;1.90;;
14984;SDS011;7588;62.368;25.902;2024-03-02T01:27:34;3.22;;;1.27;;
14984;SDS011;7588;62.368;25.902;2024-03-02T01:30:00;3.97;;;1.63;;
14984;SDS011;7588;62.368;25.902;2024-03-02T01:32:25;4.97;;;2.55;;
14984;SDS011;7588;62.368;25.902;2024-03-02T01:34:51;3.85;;;1.52;;
14984;SDS011;7588;62.368;25.902;2024-03-02T01:37:16;6.13;;;2.03;;
14984;SDS011;7588;62.368;25.902;2024-03-02T01:39:42;3.65;;;1.67;;
14984;SDS011;7588;62.368;25.902;2024-03-02T01:42:07;4.88;;;1.98;;
14984;SDS011;7588;62.368;25.902;2024-03-02T01:44:33;3.33;;;1.70;;
14984;SDS011;7588;62.368;25.902;2024-03-02T01:46:59;3.40;;;2.10;;
14984;SDS011;7588;62.368;25.902;2024-03-02T01:49:24;4.38;;;1.85;;
14984;SDS011;7588;62.368;25.902;2024-03-02T01:51:50;4.20;;;1.80;;
14984;SDS011;7588;62.368;25.902;2024-03-02T01:54:16;3.72;;;1.98;;
14984;SDS011;7588;62.368;25.902;2024-03-02T01:56:41;3.05;;;1.73;;
14984;SDS011;7588;62.368;25.902;2024-03-02T01:59:07;4.57;;;1.48;;
14984;SDS011;7588;62.368;25.902;2024-03-02T02:01:32;4.03;;;1.75;;
14984;SDS011;7588;62.368;25.902;2024-03-02T02:03:58;4.55;;;1.70;;
14984;SDS011;7588;62.368;25.902;2024-03-02T02:06:23;4.40;;;2.10;;
14984;SDS011;7588;62.368;25.902;2024-03-02T02:08:49;4.55;;;2.13;;
14984;SDS011;7588;62.368;25.902;2024-03-02T02:11:15;4.07;;;1.40;;
14984;SDS011;7588;62.368;25.902;2024-03-02T02:13:41;4.57;;;2.25;;
14984;SDS011;7588;62.368;25.902;2024-03-02T02:16:09;3.72;;;1.70;;
14984;SDS011;7588;62.368;25.902;2024-03-02T02:18:35;3.65;;;2.00;;
14984;SDS011;7588;62.368;25.902;2024-03-02T02:21:03;4.47;;;1.67;;
14984;SDS011;7588;62.368;25.902;2024-03-02T02:23:29;4.63;;;1.75;;
14984;SDS011;7588;62.368;25.902;2024-03-02T02:25:54;3.67;;;1.73;;
14984;SDS011;7588;62.368;25.902;2024-03-02T02:28:20;4.95;;;2.65;;
14984;SDS011;7588;62.368;25.902;2024-03-02T02:30:45;4.32;;;1.90;;
14984;SDS011;7588;62.368;25.902;2024-03-02T02:33:11;4.88;;;1.80;;
14984;SDS011;7588;62.368;25.902;2024-03-02T02:35:36;4.72;;;2.40;;
14984;SDS011;7588;62.368;25.902;2024-03-02T02:38:02;4.15;;;1.83;;
14984;SDS011;7588;62.368;25.902;2024-03-02T02:40:28;3.38;;;1.52;;
14984;SDS011;7588;62.368;25.902;2024-03-02T02:42:57;2.90;;;1.70;;
14984;SDS011;7588;62.368;25.902;2024-03-02T02:45:24;4.55;;;2.15;;
14984;SDS011;7588;62.368;25.902;2024-03-02T02:47:50;4.53;;;1.60;;
14984;SDS011;7588;62.368;25.902;2024-03-02T02:50:15;2.88;;;1.33;;
14984;SDS011;7588;62.368;25.902;2024-03-02T02:52:41;3.47;;;1.63;;
14984;SDS011;7588;62.368;25.902;2024-03-02T02:55:08;3.10;;;1.52;;
14984;SDS011;7588;62.368;25.902;2024-03-02T02:57:39;4.10;;;1.80;;
14984;SDS011;7588;62.368;25.902;2024-03-02T03:00:09;4.90;;;1.63;;
14984;SDS011;7588;62.368;25.902;2024-03-02T03:02:39;3.97;;;1.58;;
14984;SDS011;7588;62.368;25.902;2024-03-02T03:05:06;3.33;;;1.40;;
14984;SDS011;7588;62.368;25.902;2024-03-02T03:07:33;3.35;;;1.70;;
14984;SDS011;7588;62.368;25.902;2024-03-02T03:10:02;2.75;;;1.40;;
14984;SDS011;7588;62.368;25.902;2024-03-02T03:12:29;4.30;;;1.70;;
14984;SDS011;7588;62.368;25.902;2024-03-02T03:14:58;4.60;;;1.15;;
14984;SDS011;7588;62.368;25.902;2024-03-02T03:17:23;3.33;;;1.98;;
14984;SDS011;7588;62.368;25.902;2024-03-02T03:19:51;3.45;;;1.60;;
14984;SDS011;7588;62.368;25.902;2024-03-02T03:22:17;2.72;;;1.35;;
14984;SDS011;7588;62.368;25.902;2024-03-02T03:24:43;3.28;;;1.95;;
14984;SDS011;7588;62.368;25.902;2024-03-02T03:27:09;3.15;;;1.50;;
14984;SDS011;7588;62.368;25.902;2024-03-02T03:29:36;4.38;;;1.60;;
14984;SDS011;7588;62.368;25.902;2024-03-02T03:32:01;4.18;;;1.73;;
14984;SDS011;7588;62.368;25.902;2024-03-02T03:34:27;3.17;;;1.52;;
14984;SDS011;7588;62.368;25.902;2024-03-02T03:36:54;2.85;;;1.35;;
14984;SDS011;7588;62.368;25.902;2024-03-02T03:39:20;3.10;;;1.50;;
14984;SDS011;7588;62.368;25.902;2024-03-02T03:41:45;4.13;;;1.90;;
14984;SDS011;7588;62.368;25.902;2024-03-02T03:44:11;2.85;;;1.40;;
14984;SDS011;7588;62.368;25.902;2024-03-02T03:46:36;3.88;;;1.20;;
14984;SDS011;7588;62.368;25.902;2024-03-02T03:49:02;2.97;;;0.82;;
14984;SDS011;7588;62.368;25.902;2024-03-02T03:51:29;3.72;;;1.95;;
14984;SDS011;7588;62.368;25.902;2024-03-02T03:53:55;5.55;;;1.63;;
14984;SDS011;7588;62.368;25.902;2024-03-02T03:56:21;3.33;;;1.60;;
14984;SDS011;7588;62.368;25.902;2024-03-02T03:58:46;4.28;;;1.65;;
14984;SDS011;7588;62.368;25.902;2024-03-02T04:01:12;2.97;;;1.23;;
14984;SDS011;7588;62.368;25.902;2024-03-02T04:03:38;3.83;;;1.45;;
14984;SDS011;7588;62.368;25.902;2024-03-02T04:06:03;3.50;;;1.30;;
14984;SDS011;7588;62.368;25.902;2024-03-02T04:08:29;3.40;;;1.30;;
14984;SDS011;7588;62.368;25.902;2024-03-02T04:10:55;3.45;;;0.90;;
14984;SDS011;7588;62.368;25.902;2024-03-02T04:13:20;4.35;;;1.65;;
14984;SDS011;7588;62.368;25.902;2024-03-02T04:15:46;2.72;;;1.33;;
14984;SDS011;7588;62.368;25.902;2024-03-02T04:18:11;2.80;;;1.52;;
14984;SDS011;7588;62.368;25.902;2024-03-02T04:20:37;2.35;;;1.25;;
14984;SDS011;7588;62.368;25.902;2024-03-02T04:23:02;3.25;;;1.80;;
14984;SDS011;7588;62.368;25.902;2024-03-02T04:25:28;3.08;;;1.15;;
14984;SDS011;7588;62.368;25.902;2024-03-02T04:27:54;2.75;;;1.20;;
14984;SDS011;7588;62.368;25.902;2024-03-02T04:30:19;4.25;;;1.50;;
14984;SDS011;7588;62.368;25.902;2024-03-02T04:32:45;4.25;;;1.60;;
14984;SDS011;7588;62.368;25.902;2024-03-02T04:35:12;3.22;;;1.77;;
14984;SDS011;7588;62.368;25.902;2024-03-02T04:37:40;3.30;;;1.45;;
14984;SDS011;7588;62.368;25.902;2024-03-02T04:40:06;2.72;;;1.50;;
14984;SDS011;7588;62.368;25.902;2024-03-02T04:42:35;3.00;;;1.40;;
14984;SDS011;7588;62.368;25.902;2024-03-02T04:45:01;2.75;;;1.35;;
14984;SDS011;7588;62.368;25.902;2024-03-02T04:47:27;3.50;;;1.33;;
14984;SDS011;7588;62.368;25.902;2024-03-02T04:49:52;2.95;;;1.20;;
14984;SDS011;7588;62.368;25.902;2024-03-02T04:52:18;2.53;;;1.33;;
14984;SDS011;7588;62.368;25.902;2024-03-02T04:54:43;3.30;;;1.48;;
14984;SDS011;7588;62.368;25.902;2024-03-02T04:57:27;3.17;;;1.48;;
14984;SDS011;7588;62.368;25.902;2024-03-02T04:59:53;2.20;;;0.80;;
14984;SDS011;7588;62.368;25.902;2024-03-02T05:02:19;3.63;;;1.80;;
14984;SDS011;7588;62.368;25.902;2024-03-02T05:04:44;4.10;;;1.48;;
14984;SDS011;7588;62.368;25.902;2024-03-02T05:07:10;3.35;;;1.77;;
14984;SDS011;7588;62.368;25.902;2024-03-02T05:09:35;1.77;;;1.00;;
14984;SDS011;7588;62.368;25.902;2024-03-02T05:12:01;2.67;;;0.93;;
14984;SDS011;7588;62.368;25.902;2024-03-02T05:14:36;3.10;;;1.60;;
14984;SDS011;7588;62.368;25.902;2024-03-02T05:17:02;3.45;;;1.23;;
14984;SDS011;7588;62.368;25.902;2024-03-02T05:19:27;3.50;;;1.60;;
14984;SDS011;7588;62.368;25.902;2024-03-02T05:21:53;2.05;;;1.00;;
14984;SDS011;7588;62.368;25.902;2024-03-02T05:24:18;3.13;;;1.60;;
14984;SDS011;7588;62.368;25.902;2024-03-02T05:26:44;2.95;;;1.48;;
14984;SDS011;7588;62.368;25.902;2024-03-02T05:29:09;3.60;;;1.48;;
14984;SDS011;7588;62.368;25.902;2024-03-02T05:31:34;2.38;;;2.17;;
14984;SDS011;7588;62.368;25.902;2024-03-02T05:34:00;3.55;;;1.42;;
14984;SDS011;7588;62.368;25.902;2024-03-02T05:36:26;4.38;;;1.73;;
14984;SDS011;7588;62.368;25.902;2024-03-02T05:38:51;4.13;;;1.27;;
14984;SDS011;7588;62.368;25.902;2024-03-02T05:41:17;3.15;;;1.55;;
14984;SDS011;7588;62.368;25.902;2024-03-02T05:43:43;5.28;;;1.65;;
14984;SDS011;7588;62.368;25.902;2024-03-02T05:46:08;2.92;;;1.40;;
14984;SDS011;7588;62.368;25.902;2024-03-02T05:48:34;2.10;;;1.33;;
14984;SDS011;7588;62.368;25.902;2024-03-02T05:50:59;3.13;;;1.45;;
14984;SDS011;7588;62.368;25.902;2024-03-02T05:53:25;3.55;;;1.85;;
14984;SDS011;7588;62.368;25.902;2024-03-02T05:55:50;2.70;;;1.27;;
14984;SDS011;7588;62.368;25.902;2024-03-02T05:58:20;2.97;;;1.30;;
14984;SDS011;7588;62.368;25.902;2024-03-02T06:03:23;2.53;;;1.13;;
14984;SDS011;7588;62.368;25.902;2024-03-02T06:05:48;6.10;;;1.33;;
14984;SDS011;7588;62.368;25.902;2024-03-02T06:08:14;3.30;;;1.55;;
14984;SDS011;7588;62.368;25.902;2024-03-02T06:10:40;2.90;;;1.15;;
14984;SDS011;7588;62.368;25.902;2024-03-02T06:13:05;3.33;;;1.27;;
14984;SDS011;7588;62.368;25.902;2024-03-02T06:15:31;1.80;;;0.93;;
14984;SDS011;7588;62.368;25.902;2024-03-02T06:17:56;2.08;;;0.85;;
14984;SDS011;7588;62.368;25.902;2024-03-02T06:20:22;2.03;;;0.73;;
14984;SDS011;7588;62.368;25.902;2024-03-02T06:22:47;1.73;;;0.88;;
14984;SDS011;7588;62.368;25.902;2024-03-02T06:25:12;2.15;;;0.80;;
14984;SDS011;7588;62.368;25.902;2024-03-02T06:27:38;1.80;;;0.70;;
14984;SDS011;7588;62.368;25.902;2024-03-02T06:30:03;1.48;;;0.70;;
14984;SDS011;7588;62.368;25.902;2024-03-02T06:32:29;1.58;;;0.65;;
14984;SDS011;7588;62.368;25.902;2024-03-02T06:34:55;1.10;;;0.63;;
14984;SDS011;7588;62.368;25.902;2024-03-02T06:37:20;1.77;;;0.77;;
14984;SDS011;7588;62.368;25.902;2024-03-02T06:39:46;1.92;;;0.93;;
14984;SDS011;7588;62.368;25.902;2024-03-02T06:42:11;1.70;;;0.75;;
14984;SDS011;7588;62.368;25.902;2024-03-02T06:44:37;1.67;;;0.73;;
14984;SDS011;7588;62.368;25.902;2024-03-02T06:47:02;2.65;;;0.80;;
14984;SDS011;7588;62.368;25.902;2024-03-02T06:49:27;2.67;;;0.70;;
14984;SDS011;7588;62.368;25.902;2024-03-02T06:51:53;2.20;;;0.60;;
14984;SDS011;7588;62.368;25.902;2024-03-02T06:54:18;1.33;;;0.63;;
14984;SDS011;7588;62.368;25.902;2024-03-02T06:56:44;1.83;;;0.85;;
14984;SDS011;7588;62.368;25.902;2024-03-02T06:59:09;2.00;;;0.57;;
14984;SDS011;7588;62.368;25.902;2024-03-02T07:01:35;1.75;;;0.50;;
14984;SDS011;7588;62.368;25.902;2024-03-02T07:04:00;3.80;;;0.80;;
14984;SDS011;7588;62.368;25.902;2024-03-02T07:06:26;1.65;;;0.85;;
14984;SDS011;7588;62.368;25.902;2024-03-02T07:08:51;1.35;;;0.60;;
14984;SDS011;7588;62.368;25.902;2024-03-02T07:11:17;1.65;;;0.70;;
14984;SDS011;7588;62.368;25.902;2024-03-02T07:13:42;1.85;;;0.60;;
14984;SDS011;7588;62.368;25.902;2024-03-02T07:16:07;1.73;;;0.68;;
14984;SDS011;7588;62.368;25.902;2024-03-02T07:18:36;1.95;;;0.68;;
14984;SDS011;7588;62.368;25.902;2024-03-02T07:21:10;1.30;;;0.50;;
14984;SDS011;7588;62.368;25.902;2024-03-02T07:23:35;1.25;;;0.60;;
14984;SDS011;7588;62.368;25.902;2024-03-02T07:26:01;1.95;;;0.40;;
14984;SDS011;7588;62.368;25.902;2024-03-02T07:28:27;1.20;;;0.60;;
14984;SDS011;7588;62.368;25.902;2024-03-02T07:31:05;1.20;;;0.47;;
14984;SDS011;7588;62.368;25.902;2024-03-02T07:33:30;1.33;;;0.80;;
14984;SDS011;7588;62.368;25.902;2024-03-02T07:35:56;1.40;;;0.75;;
14984;SDS011;7588;62.368;25.902;2024-03-02T07:38:22;1.17;;;0.50;;
14984;SDS011;7588;62.368;25.902;2024-03-02T07:40:48;1.27;;;0.52;;
14984;SDS011;7588;62.368;25.902;2024-03-02T07:43:17;0.90;;;0.40;;
14984;SDS011;7588;62.368;25.902;2024-03-02T07:45:43;1.35;;;0.60;;
14984;SDS011;7588;62.368;25.902;2024-03-02T07:48:08;0.98;;;0.47;;
14984;SDS011;7588;62.368;25.902;2024-03-02T07:50:34;2.03;;;0.43;;
14984;SDS011;7588;62.368;25.902;2024-03-02T07:53:03;1.90;;;0.47;;
14984;SDS011;7588;62.368;25.902;2024-03-02T07:55:32;1.60;;;0.68;;
14984;SDS011;7588;62.368;25.902;2024-03-02T07:57:58;1.75;;;0.70;;
14984;SDS011;7588;62.368;25.902;2024-03-02T08:00:23;1.45;;;0.70;;
14984;SDS011;7588;62.368;25.902;2024-03-02T08:02:50;2.13;;;0.65;;
14984;SDS011;7588;62.368;25.902;2024-03-02T08:05:17;1.35;;;0.47;;
14984;SDS011;7588;62.368;25.902;2024-03-02T08:07:44;1.35;;;0.68;;
14984;SDS011;7588;62.368;25.902;2024-03-02T08:10:10;1.98;;;0.70;;
14984;SDS011;7588;62.368;25.902;2024-03-02T08:12:36;1.58;;;0.70;;
14984;SDS011;7588;62.368;25.902;2024-03-02T08:15:01;2.22;;;1.27;;
14984;SDS011;7588;62.368;25.902;2024-03-02T08:17:27;3.30;;;0.73;;
14984;SDS011;7588;62.368;25.902;2024-03-02T08:19:52;2.33;;;0.60;;
14984;SDS011;7588;62.368;25.902;2024-03-02T08:22:18;1.80;;;0.60;;
14984;SDS011;7588;62.368;25.902;2024-03-02T08:24:43;1.95;;;0.80;;
14984;SDS011;7588;62.368;25.902;2024-03-02T08:27:09;1.80;;;0.68;;
14984;SDS011;7588;62.368;25.902;2024-03-02T08:29:35;1.67;;;0.60;;
14984;SDS011;7588;62.368;25.902;2024-03-02T08:32:00;1.60;;;0.75;;
14984;SDS011;7588;62.368;25.902;2024-03-02T08:34:26;1.88;;;0.63;;
14984;SDS011;7588;62.368;25.902;2024-03-02T08:36:51;1.75;;;0.68;;
14984;SDS011;7588;62.368;25.902;2024-03-02T08:39:17;2.42;;;1.40;;
14984;SDS011;7588;62.368;25.902;2024-03-02T08:41:44;1.55;;;0.50;;
14984;SDS011;7588;62.368;25.902;2024-03-02T08:44:11;2.47;;;0.90;;
14984;SDS011;7588;62.368;25.902;2024-03-02T08:46:37;2.53;;;1.00;;
14984;SDS011;7588;62.368;25.902;2024-03-02T08:49:02;2.15;;;1.00;;
14984;SDS011;7588;62.368;25.902;2024-03-02T08:51:28;2.30;;;0.88;;
14984;SDS011;7588;62.368;25.902;2024-03-02T08:53:54;2.25;;;0.40;;
14984;SDS011;7588;62.368;25.902;2024-03-02T08:56:19;2.35;;;0.98;;
14984;SDS011;7588;62.368;25.902;2024-03-02T08:58:46;2.70;;;1.20;;
14984;SDS011;7588;62.368;25.902;2024-03-02T09:01:12;1.58;;;0.80;;
14984;SDS011;7588;62.368;25.902;2024-03-02T09:03:38;2.60;;;1.30;;
14984;SDS011;7588;62.368;25.902;2024-03-02T09:06:04;2.15;;;1.42;;
14984;SDS011;7588;62.368;25.902;2024-03-02T09:08:30;2.50;;;1.30;;
14984;SDS011;7588;62.368;25.902;2024-03-02T09:10:56;3.42;;;1.58;;
14984;SDS011;7588;62.368;25.902;2024-03-02T09:13:21;3.25;;;1.77;;
14984;SDS011;7588;62.368;25.902;2024-03-02T09:15:47;2.10;;;1.17;;
14984;SDS011;7588;62.368;25.902;2024-03-02T09:18:13;2.45;;;0.90;;
14984;SDS011;7588;62.368;25.902;2024-03-02T09:20:39;3.33;;;1.20;;
14984;SDS011;7588;62.368;25.902;2024-03-02T09:23:04;2.83;;;1.50;;
14984;SDS011;7588;62.368;25.902;2024-03-02T09:25:30;2.92;;;1.75;;
14984;SDS011;7588;62.368;25.902;2024-03-02T09:27:55;3.85;;;2.25;;
14984;SDS011;7588;62.368;25.902;2024-03-02T09:30:21;3.78;;;1.58;;
14984;SDS011;7588;62.368;25.902;2024-03-02T09:32:47;3.47;;;1.77;;
14984;SDS011;7588;62.368;25.902;2024-03-02T09:35:12;3.03;;;1.42;;
14984;SDS011;7588;62.368;25.902;2024-03-02T09:37:38;3.00;;;1.63;;
14984;SDS011;7588;62.368;25.902;2024-03-02T09:40:03;3.20;;;1.63;;
14984;SDS011;7588;62.368;25.902;2024-03-02T09:42:29;2.55;;;1.60;;
14984;SDS011;7588;62.368;25.902;2024-03-02T09:44:55;3.15;;;1.60;;
14984;SDS011;7588;62.368;25.902;2024-03-02T09:47:20;3.08;;;1.52;;
14984;SDS011;7588;62.368;25.902;2024-03-02T09:49:46;2.50;;;1.48;;
14984;SDS011;7588;62.368;25.902;2024-03-02T09:52:11;3.75;;;1.75;;
14984;SDS011;7588;62.368;25.902;2024-03-02T09:54:38;4.68;;;2.13;;
14984;SDS011;7588;62.368;25.902;2024-03-02T09:57:04;3.08;;;1.67;;
14984;SDS011;7588;62.368;25.902;2024-03-02T09:59:29;3.10;;;2.35;;
14984;SDS011;7588;62.368;25.902;2024-03-02T10:01:55;2.22;;;1.00;;
14984;SDS011;7588;62.368;25.902;2024-03-02T10:04:28;2.60;;;1.15;;
14984;SDS011;7588;62.368;25.902;2024-03-02T10:07:13;2.88;;;1.75;;
14984;SDS011;7588;62.368;25.902;2024-03-02T10:09:44;3.20;;;1.52;;
14984;SDS011;7588;62.368;25.902;2024-03-02T10:12:14;3.80;;;1.55;;
14984;SDS011;7588;62.368;25.902;2024-03-02T10:14:42;2.20;;;1.13;;
14984;SDS011;7588;62.368;25.902;2024-03-02T10:17:08;2.50;;;1.20;;
14984;SDS011;7588;62.368;25.902;2024-03-02T10:19:35;2.58;;;1.20;;
14984;SDS011;7588;62.368;25.902;2024-03-02T10:22:02;2.17;;;0.85;;
14984;SDS011;7588;62.368;25.902;2024-03-02T10:24:40;1.98;;;0.88;;
14984;SDS011;7588;62.368;25.902;2024-03-02T10:27:11;1.77;;;1.13;;
14984;SDS011;7588;62.368;25.902;2024-03-02T10:29:41;2.33;;;0.93;;
14984;SDS011;7588;62.368;25.902;2024-03-02T10:32:10;1.92;;;1.00;;
14984;SDS011;7588;62.368;25.902;2024-03-02T10:34:37;2.83;;;1.45;;
14984;SDS011;7588;62.368;25.902;2024-03-02T10:37:05;2.20;;;1.00;;
14984;SDS011;7588;62.368;25.902;2024-03-02T10:39:32;2.17;;;1.10;;
14984;SDS011;7588;62.368;25.902;2024-03-02T10:42:00;2.55;;;1.13;;
14984;SDS011;7588;62.368;25.902;2024-03-02T10:44:28;2.10;;;1.20;;
14984;SDS011;7588;62.368;25.902;2024-03-02T10:46:54;1.27;;;0.63;;
14984;SDS011;7588;62.368;25.902;2024-03-02T10:49:20;1.75;;;0.70;;
14984;SDS011;7588;62.368;25.902;2024-03-02T10:51:50;1.88;;;0.93;;
14984;SDS011;7588;62.368;25.902;2024-03-02T10:54:15;1.90;;;0.80;;
14984;SDS011;7588;62.368;25.902;2024-03-02T10:56:43;1.88;;;1.42;;
14984;SDS011;7588;62.368;25.902;2024-03-02T11:01:45;1.58;;;0.90;;
14984;SDS011;7588;62.368;25.902;2024-03-02T11:04:12;2.28;;;0.85;;
14984;SDS011;7588;62.368;25.902;2024-03-02T11:06:42;3.05;;;0.82;;
14984;SDS011;7588;62.368;25.902;2024-03-02T11:09:13;1.55;;;0.70;;
14984;SDS011;7588;62.368;25.902;2024-03-02T11:11:43;1.73;;;0.85;;
14984;SDS011;7588;62.368;25.902;2024-03-02T11:14:18;2.38;;;0.57;;
14984;SDS011;7588;62.368;25.902;2024-03-02T11:16:46;2.00;;;0.93;;
14984;SDS011;7588;62.368;25.902;2024-03-02T11:19:13;1.92;;;0.70;;
14984;SDS011;7588;62.368;25.902;2024-03-02T11:21:39;2.47;;;1.85;;
14984;SDS011;7588;62.368;25.902;2024-03-02T11:26:49;1.52;;;1.00;;
14984;SDS011;7588;62.368;25.902;2024-03-02T11:32:02;2.47;;;0.80;;
14984;SDS011;7588;62.368;25.902;2024-03-02T11:34:29;1.48;;;0.63;;
14984;SDS011;7588;62.368;25.902;2024-03-02T11:36:55;1.38;;;0.85;;
14984;SDS011;7588;62.368;25.902;2024-03-02T11:39:24;1.70;;;0.88;;
14984;SDS011;7588;62.368;25.902;2024-03-02T11:41:51;2.10;;;0.70;;
14984;SDS011;7588;62.368;25.902;2024-03-02T11:44:16;2.13;;;0.77;;
14984;SDS011;7588;62.368;25.902;2024-03-02T11:46:44;1.77;;;0.68;;
14984;SDS011;7588;62.368;25.902;2024-03-02T11:49:14;1.95;;;0.52;;
14984;SDS011;7588;62.368;25.902;2024-03-02T11:51:40;1.27;;;0.55;;
14984;SDS011;7588;62.368;25.902;2024-03-02T11:54:18;1.90;;;1.00;;
14984;SDS011;7588;62.368;25.902;2024-03-02T11:56:44;1.60;;;0.70;;
14984;SDS011;7588;62.368;25.902;2024-03-02T11:59:09;1.58;;;0.77;;
14984;SDS011;7588;62.368;25.902;2024-03-02T12:01:35;1.25;;;0.60;;
14984;SDS011;7588;62.368;25.902;2024-03-02T12:04:01;1.70;;;0.68;;
14984;SDS011;7588;62.368;25.902;2024-03-02T12:06:26;1.88;;;0.70;;
14984;SDS011;7588;62.368;25.902;2024-03-02T12:08:53;2.03;;;0.80;;
14984;SDS011;7588;62.368;25.902;2024-03-02T12:11:20;1.25;;;0.77;;
14984;SDS011;7588;62.368;25.902;2024-03-02T12:13:52;1.48;;;0.70;;
14984;SDS011;7588;62.368;25.902;2024-03-02T12:16:23;1.40;;;0.80;;
14984;SDS011;7588;62.368;25.902;2024-03-02T12:18:50;1.88;;;0.85;;
14984;SDS011;7588;62.368;25.902;2024-03-02T12:21:15;2.08;;;0.80;;
14984;SDS011;7588;62.368;25.902;2024-03-02T12:23:41;1.55;;;0.60;;
14984;SDS011;7588;62.368;25.902;2024-03-02T12:26:07;2.15;;;0.85;;
14984;SDS011;7588;62.368;25.902;2024-03-02T12:28:33;1.40;;;0.32;;
14984;SDS011;7588;62.368;25.902;2024-03-02T12:30:59;1.77;;;0.85;;
14984;SDS011;7588;62.368;25.902;2024-03-02T12:33:25;1.27;;;0.80;;
14984;SDS011;7588;62.368;25.902;2024-03-02T12:35:51;1.60;;;0.95;;
14984;SDS011;7588;62.368;25.902;2024-03-02T12:38:17;2.50;;;1.20;;
14984;SDS011;7588;62.368;25.902;2024-03-02T12:40:42;1.35;;;0.57;;
14984;SDS011;7588;62.368;25.902;2024-03-02T12:43:08;2.38;;;0.75;;
14984;SDS011;7588;62.368;25.902;2024-03-02T12:45:34;1.98;;;1.20;;
14984;SDS011;7588;62.368;25.902;2024-03-02T12:48:00;2.42;;;1.02;;
14984;SDS011;7588;62.368;25.902;2024-03-02T12:50:27;1.60;;;0.70;;
14984;SDS011;7588;62.368;25.902;2024-03-02T12:52:53;1.70;;;1.25;;
14984;SDS011;7588;62.368;25.902;2024-03-02T12:55:20;1.88;;;0.90;;
14984;SDS011;7588;62.368;25.902;2024-03-02T12:57:47;1.70;;;0.80;;
14984;SDS011;7588;62.368;25.902;2024-03-02T13:00:13;1.67;;;0.95;;
14984;SDS011;7588;62.368;25.902;2024-03-02T13:02:42;1.75;;;0.80;;
14984;SDS011;7588;62.368;25.902;2024-03-02T13:05:08;1.65;;;0.90;;
14984;SDS011;7588;62.368;25.902;2024-03-02T13:07:37;1.58;;;0.95;;
14984;SDS011;7588;62.368;25.902;2024-03-02T13:10:03;2.22;;;0.80;;
14984;SDS011;7588;62.368;25.902;2024-03-02T13:12:29;2.08;;;0.95;;
14984;SDS011;7588;62.368;25.902;2024-03-02T13:14:57;1.42;;;0.68;;
14984;SDS011;7588;62.368;25.902;2024-03-02T13:17:23;1.92;;;0.95;;
14984;SDS011;7588;62.368;25.902;2024-03-02T13:19:57;2.50;;;0.85;;
14984;SDS011;7588;62.368;25.902;2024-03-02T13:22:24;1.40;;;0.90;;
14984;SDS011;7588;62.368;25.902;2024-03-02T13:24:50;1.88;;;0.93;;
14984;SDS011;7588;62.368;25.902;2024-03-02T13:27:16;2.92;;;0.98;;
14984;SDS011;7588;62.368;25.902;2024-03-02T13:29:46;2.10;;;0.95;;
14984;SDS011;7588;62.368;25.902;2024-03-02T13:32:14;1.95;;;0.98;;
14984;SDS011;7588;62.368;25.902;2024-03-02T13:34:41;2.30;;;1.23;;
14984;SDS011;7588;62.368;25.902;2024-03-02T13:37:07;1.98;;;1.35;;
14984;SDS011;7588;62.368;25.902;2024-03-02T13:39:32;2.42;;;1.10;;
14984;SDS011;7588;62.368;25.902;2024-03-02T13:42:04;1.75;;;0.93;;
14984;SDS011;7588;62.368;25.902;2024-03-02T13:44:33;2.65;;;1.33;;
14984;SDS011;7588;62.368;25.902;2024-03-02T13:46:59;2.00;;;0.80;;
14984;SDS011;7588;62.368;25.902;2024-03-02T13:49:25;2.30;;;1.40;;
14984;SDS011;7588;62.368;25.902;2024-03-02T13:51:59;2.45;;;1.42;;
14984;SDS011;7588;62.368;25.902;2024-03-02T13:54:26;2.05;;;1.15;;
14984;SDS011;7588;62.368;25.902;2024-03-02T13:56:52;2.45;;;1.20;;
14984;SDS011;7588;62.368;25.902;2024-03-02T13:59:18;2.08;;;0.73;;
14984;SDS011;7588;62.368;25.902;2024-03-02T14:01:44;1.65;;;1.20;;
14984;SDS011;7588;62.368;25.902;2024-03-02T14:04:09;1.60;;;0.75;;
14984;SDS011;7588;62.368;25.902;2024-03-02T14:06:35;2.30;;;0.70;;
14984;SDS011;7588;62.368;25.902;2024-03-02T14:09:00;3.50;;;1.02;;
14984;SDS011;7588;62.368;25.902;2024-03-02T14:11:26;2.58;;;1.00;;
14984;SDS011;7588;62.368;25.902;2024-03-02T14:13:52;2.50;;;1.20;;
14984;SDS011;7588;62.368;25.902;2024-03-02T14:16:19;2.42;;;1.05;;
14984;SDS011;7588;62.368;25.902;2024-03-02T14:18:45;1.67;;;1.13;;
14984;SDS011;7588;62.368;25.902;2024-03-02T14:21:11;2.33;;;1.23;;
14984;SDS011;7588;62.368;25.902;2024-03-02T14:23:37;2.58;;;1.25;;
14984;SDS011;7588;62.368;25.902;2024-03-02T14:26:02;2.25;;;1.05;;
14984;SDS011;7588;62.368;25.902;2024-03-02T14:28:28;1.50;;;0.82;;
14984;SDS011;7588;62.368;25.902;2024-03-02T14:30:54;3.05;;;1.13;;
14984;SDS011;7588;62.368;25.902;2024-03-02T14:33:20;2.30;;;1.00;;
14984;SDS011;7588;62.368;25.902;2024-03-02T14:35:46;3.42;;;1.27;;
14984;SDS011;7588;62.368;25.902;2024-03-02T14:38:12;1.95;;;1.13;;
14984;SDS011;7588;62.368;25.902;2024-03-02T14:40:37;3.83;;;1.40;;
14984;SDS011;7588;62.368;25.902;2024-03-02T14:43:03;3.55;;;1.40;;
14984;SDS011;7588;62.368;25.902;2024-03-02T14:45:29;2.65;;;1.20;;
14984;SDS011;7588;62.368;25.902;2024-03-02T14:47:54;6.72;;;1.40;;
14984;SDS011;7588;62.368;25.902;2024-03-02T14:50:21;3.63;;;1.63;;
14984;SDS011;7588;62.368;25.902;2024-03-02T14:52:46;2.80;;;1.55;;
14984;SDS011;7588;62.368;25.902;2024-03-02T14:55:12;2.85;;;1.40;;
14984;SDS011;7588;62.368;25.902;2024-03-02T14:57:38;3.47;;;2.10;;
14984;SDS011;7588;62.368;25.902;2024-03-02T15:00:03;3.85;;;2.10;;